sensor_id;sensor_type;location;lat;lon;timestamp;P1;durP1;ratioP1;P2;durP2;ratioP2
71183;SDS011;58887;51.980;4.464;2023-06-04T00:00:46;15.57;;;15.57;;
71183;SDS011;58887;51.980;4.464;2023-06-04T00:03:12;13.89;;;13.89;;
71183;SDS011;58887;51.980;4.464;2023-06-04T00:05:38;14.61;;;14.61;;
71183;SDS011;58887;51.980;4.464;2023-06-04T00:08:03;14.98;;;14.98;;
71183;SDS011;58887;51.980;4.464;2023-06-04T00:10:29;13.23;;;13.23;;
71183;SDS011;58887;51.980;4.464;2023-06-04T00:12:56;11.29;;;11.29;;
71183;SDS011;58887;51.980;4.464;2023-06-04T00:15:21;10.03;;;10.03;;
71183;SDS011;58887;51.980;4.464;2023-06-04T00:17:47;10.09;;;10.09;;
71183;SDS011;58887;51.980;4.464;2023-06-04T00:20:13;10.05;;;10.05;;
71183;SDS011;58887;51.980;4.464;2023-06-04T00:22:39;8.24;;;8.24;;
71183;SDS011;58887;51.980;4.464;2023-06-04T00:25:07;10.06;;;10.06;;
71183;SDS011;58887;51.980;4.464;2023-06-04T00:27:33;9.77;;;9.77;;
71183;SDS011;58887;51.980;4.464;2023-06-04T00:29:59;8.08;;;8.08;;
71183;SDS011;58887;51.980;4.464;2023-06-04T00:32:25;6.84;;;6.84;;
71183;SDS011;58887;51.980;4.464;2023-06-04T00:34:54;4.35;;;4.35;;
71183;SDS011;58887;51.980;4.464;2023-06-04T00:37:22;5.77;;;5.77;;
71183;SDS011;58887;51.980;4.464;2023-06-04T00:39:48;4.73;;;4.73;;
71183;SDS011;58887;51.980;4.464;2023-06-04T00:42:15;3.33;;;3.33;;
71183;SDS011;58887;51.980;4.464;2023-06-04T00:44:40;2.91;;;2.91;;
71183;SDS011;58887;51.980;4.464;2023-06-04T00:47:16;2.26;;;2.26;;
71183;SDS011;58887;51.980;4.464;2023-06-04T00:49:44;2.02;;;2.02;;
71183;SDS011;58887;51.980;4.464;2023-06-04T00:52:10;1.96;;;1.96;;
71183;SDS011;58887;51.980;4.464;2023-06-04T00:54:39;1.74;;;1.74;;
71183;SDS011;58887;51.980;4.464;2023-06-04T00:57:05;1.60;;;1.60;;
71183;SDS011;58887;51.980;4.464;2023-06-04T00:59:32;1.60;;;1.60;;
71183;SDS011;58887;51.980;4.464;2023-06-04T01:02:00;1.43;;;1.43;;
71183;SDS011;58887;51.980;4.464;2023-06-04T01:04:44;1.78;;;1.78;;
71183;SDS011;58887;51.980;4.464;2023-06-04T01:07:16;1.80;;;1.80;;
71183;SDS011;58887;51.980;4.464;2023-06-04T01:09:44;1.76;;;1.76;;
71183;SDS011;58887;51.980;4.464;2023-06-04T01:12:10;1.41;;;1.41;;
71183;SDS011;58887;51.980;4.464;2023-06-04T01:14:36;1.44;;;1.44;;
71183;SDS011;58887;51.980;4.464;2023-06-04T01:17:11;1.39;;;1.39;;
71183;SDS011;58887;51.980;4.464;2023-06-04T01:23:12;1.47;;;1.47;;
71183;SDS011;58887;51.980;4.464;2023-06-04T01:26:03;1.49;;;1.49;;
71183;SDS011;58887;51.980;4.464;2023-06-04T01:28:31;1.38;;;1.38;;
71183;SDS011;58887;51.980;4.464;2023-06-04T01:30:59;1.34;;;1.34;;
71183;SDS011;58887;51.980;4.464;2023-06-04T01:33:27;1.30;;;1.30;;
71183;SDS011;58887;51.980;4.464;2023-06-04T01:35:54;1.46;;;1.46;;
71183;SDS011;58887;51.980;4.464;2023-06-04T01:38:21;1.32;;;1.32;;
71183;SDS011;58887;51.980;4.464;2023-06-04T01:40:46;1.28;;;1.28;;
71183;SDS011;58887;51.980;4.464;2023-06-04T01:43:12;1.18;;;1.18;;
71183;SDS011;58887;51.980;4.464;2023-06-04T01:45:38;1.42;;;1.42;;
71183;SDS011;58887;51.980;4.464;2023-06-04T01:48:04;1.46;;;1.46;;
71183;SDS011;58887;51.980;4.464;2023-06-04T01:50:31;1.30;;;1.30;;
71183;SDS011;58887;51.980;4.464;2023-06-04T01:52:56;1.21;;;1.21;;
71183;SDS011;58887;51.980;4.464;2023-06-04T01:55:22;1.30;;;1.30;;
71183;SDS011;58887;51.980;4.464;2023-06-04T01:57:51;1.24;;;1.24;;
71183;SDS011;58887;51.980;4.464;2023-06-04T02:00:19;1.44;;;1.44;;
71183;SDS011;58887;51.980;4.464;2023-06-04T02:02:45;1.33;;;1.33;;
71183;SDS011;58887;51.980;4.464;2023-06-04T02:05:14;1.35;;;1.35;;
71183;SDS011;58887;51.980;4.464;2023-06-04T02:07:41;1.35;;;1.35;;
71183;SDS011;58887;51.980;4.464;2023-06-04T02:10:17;1.35;;;1.35;;
71183;SDS011;58887;51.980;4.464;2023-06-04T02:12:55;1.54;;;1.54;;
71183;SDS011;58887;51.980;4.464;2023-06-04T02:15:26;1.21;;;1.21;;
71183;SDS011;58887;51.980;4.464;2023-06-04T02:17:59;1.11;;;1.11;;
71183;SDS011;58887;51.980;4.464;2023-06-04T02:20:43;1.30;;;1.30;;
71183;SDS011;58887;51.980;4.464;2023-06-04T02:23:10;1.12;;;1.12;;
71183;SDS011;58887;51.980;4.464;2023-06-04T02:25:36;1.25;;;1.25;;
71183;SDS011;58887;51.980;4.464;2023-06-04T02:28:02;1.17;;;1.17;;
71183;SDS011;58887;51.980;4.464;2023-06-04T02:30:28;1.25;;;1.25;;
71183;SDS011;58887;51.980;4.464;2023-06-04T02:32:54;1.11;;;1.11;;
71183;SDS011;58887;51.980;4.464;2023-06-04T02:35:20;1.08;;;1.08;;
71183;SDS011;58887;51.980;4.464;2023-06-04T02:37:49;1.13;;;1.13;;
71183;SDS011;58887;51.980;4.464;2023-06-04T02:40:16;1.02;;;1.02;;
71183;SDS011;58887;51.980;4.464;2023-06-04T02:42:42;1.20;;;1.20;;
71183;SDS011;58887;51.980;4.464;2023-06-04T02:45:07;1.16;;;1.16;;
71183;SDS011;58887;51.980;4.464;2023-06-04T02:47:34;1.04;;;1.04;;
71183;SDS011;58887;51.980;4.464;2023-06-04T02:49:59;1.21;;;1.21;;
71183;SDS011;58887;51.980;4.464;2023-06-04T02:52:25;1.10;;;1.10;;
71183;SDS011;58887;51.980;4.464;2023-06-04T02:54:50;1.12;;;1.12;;
71183;SDS011;58887;51.980;4.464;2023-06-04T02:57:16;1.05;;;1.05;;
71183;SDS011;58887;51.980;4.464;2023-06-04T02:59:42;1.04;;;1.04;;
71183;SDS011;58887;51.980;4.464;2023-06-04T03:02:07;1.02;;;1.02;;
71183;SDS011;58887;51.980;4.464;2023-06-04T03:04:33;1.08;;;1.08;;
71183;SDS011;58887;51.980;4.464;2023-06-04T03:07:01;1.16;;;1.16;;
71183;SDS011;58887;51.980;4.464;2023-06-04T03:09:29;1.09;;;1.09;;
71183;SDS011;58887;51.980;4.464;2023-06-04T03:11:57;1.31;;;1.31;;
71183;SDS011;58887;51.980;4.464;2023-06-04T03:14:26;1.21;;;1.21;;
71183;SDS011;58887;51.980;4.464;2023-06-04T03:17:00;1.18;;;1.18;;
71183;SDS011;58887;51.980;4.464;2023-06-04T03:19:34;1.00;;;1.00;;
71183;SDS011;58887;51.980;4.464;2023-06-04T03:22:01;1.16;;;1.16;;
71183;SDS011;58887;51.980;4.464;2023-06-04T03:24:34;1.07;;;1.07;;
71183;SDS011;58887;51.980;4.464;2023-06-04T03:27:06;1.09;;;1.09;;
71183;SDS011;58887;51.980;4.464;2023-06-04T03:29:32;1.19;;;1.19;;
71183;SDS011;58887;51.980;4.464;2023-06-04T03:31:59;0.94;;;0.94;;
71183;SDS011;58887;51.980;4.464;2023-06-04T03:34:25;1.19;;;1.19;;
71183;SDS011;58887;51.980;4.464;2023-06-04T03:36:51;1.17;;;1.17;;
71183;SDS011;58887;51.980;4.464;2023-06-04T03:39:17;1.09;;;1.09;;
71183;SDS011;58887;51.980;4.464;2023-06-04T03:41:43;1.13;;;1.13;;
71183;SDS011;58887;51.980;4.464;2023-06-04T03:44:09;1.18;;;1.18;;
71183;SDS011;58887;51.980;4.464;2023-06-04T03:46:36;1.16;;;1.16;;
71183;SDS011;58887;51.980;4.464;2023-06-04T03:49:02;1.12;;;1.12;;
71183;SDS011;58887;51.980;4.464;2023-06-04T03:51:27;1.04;;;1.04;;
71183;SDS011;58887;51.980;4.464;2023-06-04T03:53:54;1.03;;;1.03;;
71183;SDS011;58887;51.980;4.464;2023-06-04T03:56:21;1.19;;;1.19;;
71183;SDS011;58887;51.980;4.464;2023-06-04T03:58:46;1.36;;;1.36;;
71183;SDS011;58887;51.980;4.464;2023-06-04T04:01:13;1.18;;;1.18;;
71183;SDS011;58887;51.980;4.464;2023-06-04T04:03:39;1.08;;;1.08;;
71183;SDS011;58887;51.980;4.464;2023-06-04T04:06:05;1.16;;;1.16;;
71183;SDS011;58887;51.980;4.464;2023-06-04T04:08:30;1.09;;;1.09;;
71183;SDS011;58887;51.980;4.464;2023-06-04T04:10:59;1.09;;;1.09;;
71183;SDS011;58887;51.980;4.464;2023-06-04T04:13:25;1.04;;;1.04;;
71183;SDS011;58887;51.980;4.464;2023-06-04T04:15:51;1.14;;;1.14;;
71183;SDS011;58887;51.980;4.464;2023-06-04T04:18:22;1.02;;;1.02;;
71183;SDS011;58887;51.980;4.464;2023-06-04T04:20:47;1.17;;;1.17;;
71183;SDS011;58887;51.980;4.464;2023-06-04T04:23:13;1.13;;;1.13;;
71183;SDS011;58887;51.980;4.464;2023-06-04T04:25:39;0.80;;;0.80;;
71183;SDS011;58887;51.980;4.464;2023-06-04T04:28:06;0.97;;;0.97;;
71183;SDS011;58887;51.980;4.464;2023-06-04T04:30:35;0.98;;;0.98;;
71183;SDS011;58887;51.980;4.464;2023-06-04T04:33:02;1.20;;;1.20;;
71183;SDS011;58887;51.980;4.464;2023-06-04T04:35:30;1.21;;;1.21;;
71183;SDS011;58887;51.980;4.464;2023-06-04T04:38:01;0.97;;;0.97;;
71183;SDS011;58887;51.980;4.464;2023-06-04T04:40:29;1.21;;;1.21;;
71183;SDS011;58887;51.980;4.464;2023-06-04T04:42:55;1.18;;;1.18;;
71183;SDS011;58887;51.980;4.464;2023-06-04T04:45:20;1.09;;;1.09;;
71183;SDS011;58887;51.980;4.464;2023-06-04T04:47:46;1.19;;;1.19;;
71183;SDS011;58887;51.980;4.464;2023-06-04T04:50:12;1.09;;;1.09;;
71183;SDS011;58887;51.980;4.464;2023-06-04T04:52:38;1.02;;;1.02;;
71183;SDS011;58887;51.980;4.464;2023-06-04T04:55:05;1.11;;;1.11;;
71183;SDS011;58887;51.980;4.464;2023-06-04T04:57:31;1.04;;;1.04;;
71183;SDS011;58887;51.980;4.464;2023-06-04T04:59:57;1.04;;;1.04;;
71183;SDS011;58887;51.980;4.464;2023-06-04T05:02:22;1.15;;;1.15;;
71183;SDS011;58887;51.980;4.464;2023-06-04T05:04:48;1.19;;;1.19;;
71183;SDS011;58887;51.980;4.464;2023-06-04T05:07:13;0.98;;;0.97;;
71183;SDS011;58887;51.980;4.464;2023-06-04T05:09:39;1.06;;;1.06;;
71183;SDS011;58887;51.980;4.464;2023-06-04T05:12:05;1.03;;;1.03;;
71183;SDS011;58887;51.980;4.464;2023-06-04T05:14:32;1.06;;;1.06;;
71183;SDS011;58887;51.980;4.464;2023-06-04T05:16:57;0.96;;;0.96;;
71183;SDS011;58887;51.980;4.464;2023-06-04T05:19:23;1.03;;;1.03;;
71183;SDS011;58887;51.980;4.464;2023-06-04T05:21:49;1.08;;;1.08;;
71183;SDS011;58887;51.980;4.464;2023-06-04T05:24:14;1.05;;;1.05;;
71183;SDS011;58887;51.980;4.464;2023-06-04T05:26:40;1.16;;;1.16;;
71183;SDS011;58887;51.980;4.464;2023-06-04T05:29:06;0.97;;;0.97;;
71183;SDS011;58887;51.980;4.464;2023-06-04T05:31:33;2.23;;;2.23;;
71183;SDS011;58887;51.980;4.464;2023-06-04T05:34:00;1.04;;;1.04;;
71183;SDS011;58887;51.980;4.464;2023-06-04T05:36:29;1.18;;;1.18;;
71183;SDS011;58887;51.980;4.464;2023-06-04T05:38:56;12.42;;;12.42;;
71183;SDS011;58887;51.980;4.464;2023-06-04T05:41:26;1.32;;;1.32;;
71183;SDS011;58887;51.980;4.464;2023-06-04T05:43:52;1.07;;;1.07;;
71183;SDS011;58887;51.980;4.464;2023-06-04T05:46:18;1.16;;;1.16;;
71183;SDS011;58887;51.980;4.464;2023-06-04T05:48:44;1.38;;;1.38;;
71183;SDS011;58887;51.980;4.464;2023-06-04T05:51:10;1.32;;;1.32;;
71183;SDS011;58887;51.980;4.464;2023-06-04T05:53:37;1.53;;;1.53;;
71183;SDS011;58887;51.980;4.464;2023-06-04T05:56:03;10.16;;;10.16;;
71183;SDS011;58887;51.980;4.464;2023-06-04T05:58:28;4.48;;;4.48;;
71183;SDS011;58887;51.980;4.464;2023-06-04T06:00:54;1.96;;;1.96;;
71183;SDS011;58887;51.980;4.464;2023-06-04T06:03:20;3.37;;;3.37;;
71183;SDS011;58887;51.980;4.464;2023-06-04T06:05:46;9.98;;;9.98;;
71183;SDS011;58887;51.980;4.464;2023-06-04T06:08:13;6.71;;;6.71;;
71183;SDS011;58887;51.980;4.464;2023-06-04T06:10:39;1.82;;;1.82;;
71183;SDS011;58887;51.980;4.464;2023-06-04T06:13:05;1.89;;;1.89;;
71183;SDS011;58887;51.980;4.464;2023-06-04T06:15:30;1.59;;;1.59;;
71183;SDS011;58887;51.980;4.464;2023-06-04T06:17:56;1.39;;;1.39;;
71183;SDS011;58887;51.980;4.464;2023-06-04T06:20:21;1.19;;;1.19;;
71183;SDS011;58887;51.980;4.464;2023-06-04T06:22:47;0.94;;;0.94;;
71183;SDS011;58887;51.980;4.464;2023-06-04T06:25:13;1.12;;;1.12;;
71183;SDS011;58887;51.980;4.464;2023-06-04T06:27:41;1.24;;;1.24;;
71183;SDS011;58887;51.980;4.464;2023-06-04T06:30:07;1.01;;;1.01;;
71183;SDS011;58887;51.980;4.464;2023-06-04T06:32:33;1.07;;;1.07;;
71183;SDS011;58887;51.980;4.464;2023-06-04T06:34:58;0.99;;;0.99;;
71183;SDS011;58887;51.980;4.464;2023-06-04T06:37:24;0.96;;;0.96;;
71183;SDS011;58887;51.980;4.464;2023-06-04T06:39:50;0.85;;;0.85;;
71183;SDS011;58887;51.980;4.464;2023-06-04T06:42:17;0.91;;;0.91;;
71183;SDS011;58887;51.980;4.464;2023-06-04T06:44:46;0.83;;;0.83;;
71183;SDS011;58887;51.980;4.464;2023-06-04T06:47:12;0.95;;;0.95;;
71183;SDS011;58887;51.980;4.464;2023-06-04T06:49:42;0.88;;;0.88;;
71183;SDS011;58887;51.980;4.464;2023-06-04T06:52:08;0.86;;;0.86;;
71183;SDS011;58887;51.980;4.464;2023-06-04T06:54:34;0.78;;;0.78;;
71183;SDS011;58887;51.980;4.464;2023-06-04T06:57:00;1.02;;;1.02;;
71183;SDS011;58887;51.980;4.464;2023-06-04T06:59:26;0.95;;;0.95;;
71183;SDS011;58887;51.980;4.464;2023-06-04T07:01:52;0.93;;;0.93;;
71183;SDS011;58887;51.980;4.464;2023-06-04T07:04:18;0.85;;;0.85;;
71183;SDS011;58887;51.980;4.464;2023-06-04T07:06:43;0.91;;;0.91;;
71183;SDS011;58887;51.980;4.464;2023-06-04T07:09:09;0.86;;;0.86;;
71183;SDS011;58887;51.980;4.464;2023-06-04T07:11:34;0.77;;;0.77;;
71183;SDS011;58887;51.980;4.464;2023-06-04T07:14:00;0.97;;;0.97;;
71183;SDS011;58887;51.980;4.464;2023-06-04T07:16:29;0.72;;;0.72;;
71183;SDS011;58887;51.980;4.464;2023-06-04T07:18:55;0.78;;;0.78;;
71183;SDS011;58887;51.980;4.464;2023-06-04T07:21:20;0.69;;;0.69;;
71183;SDS011;58887;51.980;4.464;2023-06-04T07:23:49;0.76;;;0.76;;
71183;SDS011;58887;51.980;4.464;2023-06-04T07:26:16;0.84;;;0.84;;
71183;SDS011;58887;51.980;4.464;2023-06-04T07:28:43;0.73;;;0.72;;
71183;SDS011;58887;51.980;4.464;2023-06-04T07:31:09;0.77;;;0.77;;
71183;SDS011;58887;51.980;4.464;2023-06-04T07:33:35;0.89;;;0.89;;
71183;SDS011;58887;51.980;4.464;2023-06-04T07:36:09;0.81;;;0.81;;
71183;SDS011;58887;51.980;4.464;2023-06-04T07:38:36;0.87;;;0.87;;
71183;SDS011;58887;51.980;4.464;2023-06-04T07:41:01;0.69;;;0.69;;
71183;SDS011;58887;51.980;4.464;2023-06-04T07:43:27;0.90;;;0.89;;
71183;SDS011;58887;51.980;4.464;2023-06-04T07:45:53;0.85;;;0.84;;
71183;SDS011;58887;51.980;4.464;2023-06-04T07:48:19;0.82;;;0.81;;
71183;SDS011;58887;51.980;4.464;2023-06-04T07:50:44;0.86;;;0.85;;
71183;SDS011;58887;51.980;4.464;2023-06-04T07:53:10;0.76;;;0.75;;
71183;SDS011;58887;51.980;4.464;2023-06-04T07:55:35;0.81;;;0.79;;
71183;SDS011;58887;51.980;4.464;2023-06-04T07:58:01;0.80;;;0.79;;
71183;SDS011;58887;51.980;4.464;2023-06-04T08:00:26;0.74;;;0.73;;
71183;SDS011;58887;51.980;4.464;2023-06-04T08:02:52;0.82;;;0.81;;
71183;SDS011;58887;51.980;4.464;2023-06-04T08:05:17;0.89;;;0.88;;
71183;SDS011;58887;51.980;4.464;2023-06-04T08:07:43;1.08;;;1.07;;
71183;SDS011;58887;51.980;4.464;2023-06-04T08:10:09;0.85;;;0.84;;
71183;SDS011;58887;51.980;4.464;2023-06-04T08:12:34;0.86;;;0.85;;
71183;SDS011;58887;51.980;4.464;2023-06-04T08:15:01;0.92;;;0.91;;
71183;SDS011;58887;51.980;4.464;2023-06-04T08:17:26;0.80;;;0.79;;
71183;SDS011;58887;51.980;4.464;2023-06-04T08:19:51;0.87;;;0.86;;
71183;SDS011;58887;51.980;4.464;2023-06-04T08:25:13;0.93;;;0.91;;
71183;SDS011;58887;51.980;4.464;2023-06-04T08:27:39;1.09;;;1.08;;
71183;SDS011;58887;51.980;4.464;2023-06-04T08:30:05;1.01;;;1.00;;
71183;SDS011;58887;51.980;4.464;2023-06-04T08:32:32;0.83;;;0.82;;
71183;SDS011;58887;51.980;4.464;2023-06-04T08:34:57;0.96;;;0.95;;
71183;SDS011;58887;51.980;4.464;2023-06-04T08:37:23;1.15;;;1.13;;
71183;SDS011;58887;51.980;4.464;2023-06-04T08:39:50;0.91;;;0.89;;
71183;SDS011;58887;51.980;4.464;2023-06-04T08:42:22;0.84;;;0.82;;
71183;SDS011;58887;51.980;4.464;2023-06-04T08:44:50;0.93;;;0.91;;
71183;SDS011;58887;51.980;4.464;2023-06-04T08:47:20;0.88;;;0.86;;
71183;SDS011;58887;51.980;4.464;2023-06-04T08:49:50;1.11;;;1.10;;
71183;SDS011;58887;51.980;4.464;2023-06-04T08:52:16;0.86;;;0.84;;
71183;SDS011;58887;51.980;4.464;2023-06-04T08:54:42;1.06;;;1.04;;
71183;SDS011;58887;51.980;4.464;2023-06-04T08:57:08;0.84;;;0.82;;
71183;SDS011;58887;51.980;4.464;2023-06-04T08:59:34;0.95;;;0.93;;
71183;SDS011;58887;51.980;4.464;2023-06-04T09:02:01;0.88;;;0.86;;
71183;SDS011;58887;51.980;4.464;2023-06-04T09:04:28;1.00;;;1.00;;
71183;SDS011;58887;51.980;4.464;2023-06-04T09:06:54;1.05;;;1.05;;
71183;SDS011;58887;51.980;4.464;2023-06-04T09:09:20;0.91;;;0.91;;
71183;SDS011;58887;51.980;4.464;2023-06-04T09:11:53;0.99;;;0.99;;
71183;SDS011;58887;51.980;4.464;2023-06-04T09:14:20;1.12;;;1.12;;
71183;SDS011;58887;51.980;4.464;2023-06-04T09:16:48;0.87;;;0.87;;
71183;SDS011;58887;51.980;4.464;2023-06-04T09:19:16;1.08;;;1.08;;
71183;SDS011;58887;51.980;4.464;2023-06-04T09:21:49;0.82;;;0.82;;
71183;SDS011;58887;51.980;4.464;2023-06-04T09:24:18;0.95;;;0.95;;
71183;SDS011;58887;51.980;4.464;2023-06-04T09:26:46;0.99;;;0.99;;
71183;SDS011;58887;51.980;4.464;2023-06-04T09:29:12;1.41;;;1.41;;
71183;SDS011;58887;51.980;4.464;2023-06-04T09:31:38;1.02;;;1.02;;
71183;SDS011;58887;51.980;4.464;2023-06-04T09:34:05;0.90;;;0.90;;
71183;SDS011;58887;51.980;4.464;2023-06-04T09:36:34;1.06;;;1.06;;
71183;SDS011;58887;51.980;4.464;2023-06-04T09:39:02;0.80;;;0.80;;
71183;SDS011;58887;51.980;4.464;2023-06-04T09:41:28;1.01;;;1.01;;
71183;SDS011;58887;51.980;4.464;2023-06-04T09:44:00;1.12;;;1.12;;
71183;SDS011;58887;51.980;4.464;2023-06-04T09:46:31;0.85;;;0.85;;
71183;SDS011;58887;51.980;4.464;2023-06-04T09:49:02;0.92;;;0.92;;
71183;SDS011;58887;51.980;4.464;2023-06-04T09:51:29;0.81;;;0.81;;
71183;SDS011;58887;51.980;4.464;2023-06-04T09:53:58;0.86;;;0.86;;
71183;SDS011;58887;51.980;4.464;2023-06-04T09:56:25;1.06;;;1.06;;
71183;SDS011;58887;51.980;4.464;2023-06-04T09:58:59;0.98;;;0.97;;
71183;SDS011;58887;51.980;4.464;2023-06-04T10:01:28;0.98;;;0.96;;
71183;SDS011;58887;51.980;4.464;2023-06-04T10:03:55;0.80;;;0.78;;
71183;SDS011;58887;51.980;4.464;2023-06-04T10:06:26;0.81;;;0.78;;
71183;SDS011;58887;51.980;4.464;2023-06-04T10:08:57;0.82;;;0.80;;
71183;SDS011;58887;51.980;4.464;2023-06-04T10:11:26;0.93;;;0.92;;
71183;SDS011;58887;51.980;4.464;2023-06-04T10:16:43;0.84;;;0.82;;
71183;SDS011;58887;51.980;4.464;2023-06-04T10:19:10;0.79;;;0.78;;
71183;SDS011;58887;51.980;4.464;2023-06-04T10:21:36;0.88;;;0.86;;
71183;SDS011;58887;51.980;4.464;2023-06-04T10:24:04;0.84;;;0.81;;
71183;SDS011;58887;51.980;4.464;2023-06-04T10:26:30;0.99;;;0.97;;
71183;SDS011;58887;51.980;4.464;2023-06-04T10:29:00;0.85;;;0.84;;
71183;SDS011;58887;51.980;4.464;2023-06-04T10:31:27;0.95;;;0.95;;
71183;SDS011;58887;51.980;4.464;2023-06-04T10:33:56;0.95;;;0.95;;
71183;SDS011;58887;51.980;4.464;2023-06-04T10:36:23;0.90;;;0.90;;
71183;SDS011;58887;51.980;4.464;2023-06-04T10:38:54;0.65;;;0.65;;
71183;SDS011;58887;51.980;4.464;2023-06-04T10:41:21;0.97;;;0.97;;
71183;SDS011;58887;51.980;4.464;2023-06-04T10:43:51;0.70;;;0.70;;
71183;SDS011;58887;51.980;4.464;2023-06-04T10:46:36;0.88;;;0.88;;
71183;SDS011;58887;51.980;4.464;2023-06-04T10:49:05;0.79;;;0.79;;
71183;SDS011;58887;51.980;4.464;2023-06-04T10:51:31;0.69;;;0.69;;
71183;SDS011;58887;51.980;4.464;2023-06-04T10:54:00;0.98;;;0.98;;
71183;SDS011;58887;51.980;4.464;2023-06-04T10:56:32;0.83;;;0.83;;
71183;SDS011;58887;51.980;4.464;2023-06-04T10:59:00;0.74;;;0.74;;
71183;SDS011;58887;51.980;4.464;2023-06-04T11:01:40;0.87;;;0.87;;
71183;SDS011;58887;51.980;4.464;2023-06-04T11:04:05;0.85;;;0.85;;
71183;SDS011;58887;51.980;4.464;2023-06-04T11:06:31;0.84;;;0.84;;
71183;SDS011;58887;51.980;4.464;2023-06-04T11:09:01;0.88;;;0.88;;
71183;SDS011;58887;51.980;4.464;2023-06-04T11:11:28;0.93;;;0.93;;
71183;SDS011;58887;51.980;4.464;2023-06-04T11:13:54;0.85;;;0.85;;
71183;SDS011;58887;51.980;4.464;2023-06-04T11:16:21;0.87;;;0.87;;
71183;SDS011;58887;51.980;4.464;2023-06-04T11:18:56;0.94;;;0.94;;
71183;SDS011;58887;51.980;4.464;2023-06-04T11:21:38;0.86;;;0.86;;
71183;SDS011;58887;51.980;4.464;2023-06-04T11:24:03;1.02;;;1.02;;
71183;SDS011;58887;51.980;4.464;2023-06-04T11:26:36;0.95;;;0.95;;
71183;SDS011;58887;51.980;4.464;2023-06-04T11:29:05;0.80;;;0.80;;
71183;SDS011;58887;51.980;4.464;2023-06-04T11:31:45;0.98;;;0.98;;
71183;SDS011;58887;51.980;4.464;2023-06-04T11:34:22;0.80;;;0.80;;
71183;SDS011;58887;51.980;4.464;2023-06-04T11:36:54;0.93;;;0.93;;
71183;SDS011;58887;51.980;4.464;2023-06-04T11:39:21;0.89;;;0.89;;
71183;SDS011;58887;51.980;4.464;2023-06-04T11:41:47;0.65;;;0.65;;
71183;SDS011;58887;51.980;4.464;2023-06-04T11:44:18;1.00;;;1.00;;
71183;SDS011;58887;51.980;4.464;2023-06-04T11:46:45;0.64;;;0.64;;
71183;SDS011;58887;51.980;4.464;2023-06-04T11:49:16;0.83;;;0.83;;
71183;SDS011;58887;51.980;4.464;2023-06-04T11:51:51;0.89;;;0.89;;
71183;SDS011;58887;51.980;4.464;2023-06-04T11:54:18;1.02;;;1.02;;
71183;SDS011;58887;51.980;4.464;2023-06-04T11:56:48;0.96;;;0.96;;
71183;SDS011;58887;51.980;4.464;2023-06-04T11:59:17;0.98;;;0.98;;
71183;SDS011;58887;51.980;4.464;2023-06-04T12:01:43;0.89;;;0.89;;
71183;SDS011;58887;51.980;4.464;2023-06-04T12:04:14;0.79;;;0.79;;
71183;SDS011;58887;51.980;4.464;2023-06-04T12:06:55;0.79;;;0.79;;
71183;SDS011;58887;51.980;4.464;2023-06-04T12:09:23;1.25;;;1.25;;
71183;SDS011;58887;51.980;4.464;2023-06-04T12:12:03;0.97;;;0.97;;
71183;SDS011;58887;51.980;4.464;2023-06-04T12:14:31;0.81;;;0.81;;
71183;SDS011;58887;51.980;4.464;2023-06-04T12:17:02;0.90;;;0.90;;
71183;SDS011;58887;51.980;4.464;2023-06-04T12:19:32;1.00;;;1.00;;
71183;SDS011;58887;51.980;4.464;2023-06-04T12:22:02;1.09;;;1.09;;
71183;SDS011;58887;51.980;4.464;2023-06-04T12:24:30;0.91;;;0.91;;
71183;SDS011;58887;51.980;4.464;2023-06-04T12:27:08;0.78;;;0.78;;
71183;SDS011;58887;51.980;4.464;2023-06-04T12:29:34;0.88;;;0.88;;
71183;SDS011;58887;51.980;4.464;2023-06-04T12:32:06;0.84;;;0.84;;
71183;SDS011;58887;51.980;4.464;2023-06-04T12:34:37;0.81;;;0.81;;
71183;SDS011;58887;51.980;4.464;2023-06-04T12:37:03;1.06;;;1.06;;
71183;SDS011;58887;51.980;4.464;2023-06-04T12:39:34;0.78;;;0.78;;
71183;SDS011;58887;51.980;4.464;2023-06-04T12:42:02;0.99;;;0.99;;
71183;SDS011;58887;51.980;4.464;2023-06-04T12:44:28;0.91;;;0.91;;
71183;SDS011;58887;51.980;4.464;2023-06-04T12:46:54;1.05;;;1.05;;
71183;SDS011;58887;51.980;4.464;2023-06-04T12:49:20;0.86;;;0.86;;
71183;SDS011;58887;51.980;4.464;2023-06-04T12:51:46;0.81;;;0.81;;
71183;SDS011;58887;51.980;4.464;2023-06-04T12:54:12;0.83;;;0.83;;
71183;SDS011;58887;51.980;4.464;2023-06-04T12:56:38;0.78;;;0.78;;
71183;SDS011;58887;51.980;4.464;2023-06-04T12:59:05;0.88;;;0.88;;
71183;SDS011;58887;51.980;4.464;2023-06-04T13:01:31;0.90;;;0.90;;
71183;SDS011;58887;51.980;4.464;2023-06-04T13:03:56;0.81;;;0.81;;
71183;SDS011;58887;51.980;4.464;2023-06-04T13:06:22;1.00;;;1.00;;
71183;SDS011;58887;51.980;4.464;2023-06-04T13:08:47;0.90;;;0.90;;
71183;SDS011;58887;51.980;4.464;2023-06-04T13:11:13;0.99;;;0.99;;
71183;SDS011;58887;51.980;4.464;2023-06-04T13:13:38;0.88;;;0.88;;
71183;SDS011;58887;51.980;4.464;2023-06-04T13:16:05;0.87;;;0.87;;
71183;SDS011;58887;51.980;4.464;2023-06-04T13:18:30;0.80;;;0.80;;
71183;SDS011;58887;51.980;4.464;2023-06-04T13:20:56;0.86;;;0.86;;
71183;SDS011;58887;51.980;4.464;2023-06-04T13:23:22;0.93;;;0.93;;
71183;SDS011;58887;51.980;4.464;2023-06-04T13:25:47;0.94;;;0.94;;
71183;SDS011;58887;51.980;4.464;2023-06-04T13:28:13;0.82;;;0.82;;
71183;SDS011;58887;51.980;4.464;2023-06-04T13:30:39;0.87;;;0.87;;
71183;SDS011;58887;51.980;4.464;2023-06-04T13:33:06;0.97;;;0.97;;
71183;SDS011;58887;51.980;4.464;2023-06-04T13:35:32;0.79;;;0.79;;
71183;SDS011;58887;51.980;4.464;2023-06-04T13:37:57;0.89;;;0.89;;
71183;SDS011;58887;51.980;4.464;2023-06-04T13:40:23;0.78;;;0.78;;
71183;SDS011;58887;51.980;4.464;2023-06-04T13:42:49;0.87;;;0.87;;
71183;SDS011;58887;51.980;4.464;2023-06-04T13:45:15;0.97;;;0.97;;
71183;SDS011;58887;51.980;4.464;2023-06-04T13:47:42;0.84;;;0.84;;
71183;SDS011;58887;51.980;4.464;2023-06-04T13:50:07;0.88;;;0.88;;
71183;SDS011;58887;51.980;4.464;2023-06-04T13:52:33;0.83;;;0.83;;
71183;SDS011;58887;51.980;4.464;2023-06-04T13:54:59;0.90;;;0.90;;
71183;SDS011;58887;51.980;4.464;2023-06-04T13:57:25;0.87;;;0.87;;
71183;SDS011;58887;51.980;4.464;2023-06-04T13:59:50;0.85;;;0.85;;
71183;SDS011;58887;51.980;4.464;2023-06-04T14:02:16;0.86;;;0.86;;
71183;SDS011;58887;51.980;4.464;2023-06-04T14:04:43;0.90;;;0.90;;
71183;SDS011;58887;51.980;4.464;2023-06-04T14:07:08;0.95;;;0.95;;
71183;SDS011;58887;51.980;4.464;2023-06-04T14:09:34;0.82;;;0.82;;
71183;SDS011;58887;51.980;4.464;2023-06-04T14:12:01;0.79;;;0.79;;
71183;SDS011;58887;51.980;4.464;2023-06-04T14:14:27;0.86;;;0.86;;
71183;SDS011;58887;51.980;4.464;2023-06-04T14:16:54;0.74;;;0.74;;
71183;SDS011;58887;51.980;4.464;2023-06-04T14:19:20;0.74;;;0.74;;
71183;SDS011;58887;51.980;4.464;2023-06-04T14:21:46;1.18;;;1.18;;
71183;SDS011;58887;51.980;4.464;2023-06-04T14:24:11;0.91;;;0.91;;
71183;SDS011;58887;51.980;4.464;2023-06-04T14:26:37;0.83;;;0.83;;
71183;SDS011;58887;51.980;4.464;2023-06-04T14:29:03;0.86;;;0.86;;
71183;SDS011;58887;51.980;4.464;2023-06-04T14:31:28;1.05;;;1.05;;
71183;SDS011;58887;51.980;4.464;2023-06-04T14:33:54;1.13;;;1.13;;
71183;SDS011;58887;51.980;4.464;2023-06-04T14:36:20;1.18;;;1.18;;
71183;SDS011;58887;51.980;4.464;2023-06-04T14:38:46;1.07;;;1.07;;
71183;SDS011;58887;51.980;4.464;2023-06-04T14:41:19;1.09;;;1.09;;
71183;SDS011;58887;51.980;4.464;2023-06-04T14:43:44;1.10;;;1.10;;
71183;SDS011;58887;51.980;4.464;2023-06-04T14:46:10;1.10;;;1.10;;
71183;SDS011;58887;51.980;4.464;2023-06-04T14:48:35;1.26;;;1.25;;
71183;SDS011;58887;51.980;4.464;2023-06-04T14:51:01;1.19;;;1.17;;
71183;SDS011;58887;51.980;4.464;2023-06-04T14:53:26;1.20;;;1.17;;
71183;SDS011;58887;51.980;4.464;2023-06-04T14:55:52;1.26;;;1.23;;
71183;SDS011;58887;51.980;4.464;2023-06-04T14:58:17;1.29;;;1.25;;